Rechercher aéroport 
image banner adimage banner adimage banner ad
image banner ad

4CA5 - Childrens Hospital Of Orange County

Situé à Orange, United States

ICAO - 4CA5, IATA -

Données fournies par Airmate  

Information générale

Coordonnées: N33°46'53" W117°51'55"
Élévation : 275 feet MSL.
Variation magnétique : 14° East
Voir autres Aéroports à California

Données opérationnelles

Special qualification required
Heure actuelle UTC:
Heure actuelle locale:
METAR: KSNA 251207Z AUTO 00000KT 10SM SCT015 21/16 A2995 RMK AO2 T02060161
TAF: KSNA 251141Z 2512/2612 VRB04KT P6SM SCT015 BKN120 TEMPO 2512/2516 BKN015 FM251900 22009KT P6SM FEW010 OVC120 FM260300 VRB05KT P6SM SCT015 OVC120 FM260800 VRB05KT P6SM VCSH BKN015 OVC100
Voir NOTAMs / SUP AIP / TFR affectant cet aéroport [VIEW]
Fréquences de communication: [VIEW]

Pistes:

Coordonnées de l'aéroport

Adresse: Orange United States

Vue satellite de 4CA5